createdAt,value
2023-05-07T00:01:18.151Z,7.25
2023-05-07T00:03:47.321Z,7.68
2023-05-07T00:06:16.008Z,7.32
2023-05-07T00:08:45.906Z,7.77
2023-05-07T00:11:14.112Z,7.50
2023-05-07T00:13:42.295Z,7.20
2023-05-07T00:16:10.594Z,7.72
2023-05-07T00:18:38.901Z,7.10
2023-05-07T00:21:07.098Z,6.53
2023-05-07T00:23:35.275Z,7.43
2023-05-07T00:26:04.924Z,7.22
2023-05-07T00:28:33.228Z,7.60
2023-05-07T00:31:01.472Z,7.30
2023-05-07T00:33:29.675Z,7.90
2023-05-07T00:35:57.868Z,7.68
2023-05-07T00:38:26.266Z,7.70
2023-05-07T00:40:54.473Z,8.35
2023-05-07T00:43:24.033Z,7.80
2023-05-07T00:45:52.496Z,8.20
2023-05-07T00:48:21.010Z,8.43
2023-05-07T00:50:49.357Z,8.20
2023-05-07T00:53:17.587Z,8.10
2023-05-07T00:55:45.928Z,7.65
2023-05-07T00:58:14.100Z,8.15
2023-05-07T01:00:43.645Z,8.27
2023-05-07T01:03:11.900Z,8.50
2023-05-07T01:05:41.120Z,8.50
2023-05-07T01:08:09.765Z,8.52
2023-05-07T01:10:37.991Z,9.30
2023-05-07T01:13:06.713Z,8.13
2023-05-07T01:15:35.002Z,8.82
2023-05-07T01:18:04.753Z,9.30
2023-05-07T01:20:32.985Z,9.37
2023-05-07T01:23:03.259Z,9.53
2023-05-07T01:25:31.616Z,9.83
2023-05-07T01:28:00.893Z,9.83
2023-05-07T01:30:29.298Z,10.23
2023-05-07T01:33:00.371Z,10.30
2023-05-07T01:35:30.363Z,9.33
2023-05-07T01:37:59.045Z,9.47
2023-05-07T01:40:28.813Z,11.20
2023-05-07T01:42:57.356Z,10.67
2023-05-07T01:45:25.694Z,9.90
2023-05-07T01:47:54.460Z,11.37
2023-05-07T01:50:23.207Z,11.00
2023-05-07T01:52:53.157Z,11.60
2023-05-07T01:55:21.451Z,10.53
2023-05-07T01:57:51.000Z,10.77
2023-05-07T02:00:19.974Z,11.70
2023-05-07T02:02:48.261Z,11.20
2023-05-07T02:05:16.544Z,11.30
2023-05-07T02:07:44.707Z,11.60
2023-05-07T02:10:13.110Z,12.43
2023-05-07T02:12:41.539Z,12.43
2023-05-07T02:15:11.721Z,12.37
2023-05-07T02:17:42.115Z,12.60
2023-05-07T02:20:14.266Z,13.33
2023-05-07T02:22:42.499Z,13.57
2023-05-07T02:25:10.956Z,14.13
2023-05-07T02:27:39.161Z,14.90
2023-05-07T02:30:08.105Z,14.93
2023-05-07T02:32:37.765Z,14.53
2023-05-07T02:35:06.344Z,15.20
2023-05-07T02:37:34.606Z,15.83
2023-05-07T02:40:04.389Z,14.93
2023-05-07T02:42:32.660Z,16.20
2023-05-07T02:45:01.014Z,15.17
2023-05-07T02:47:29.608Z,16.93
2023-05-07T02:49:59.235Z,17.13
2023-05-07T02:52:27.426Z,15.90
2023-05-07T02:54:55.971Z,16.80
2023-05-07T02:57:24.161Z,16.07
2023-05-07T02:59:53.015Z,16.57
2023-05-07T03:02:21.332Z,16.60
2023-05-07T03:04:49.534Z,16.83
2023-05-07T03:07:19.157Z,15.90
2023-05-07T03:09:47.348Z,17.20
2023-05-07T03:12:15.718Z,17.37
2023-05-07T03:14:43.883Z,16.97
2023-05-07T03:17:12.069Z,16.97
2023-05-07T03:19:40.382Z,15.67
2023-05-07T03:22:08.606Z,16.03
2023-05-07T03:24:38.196Z,16.67
2023-05-07T03:27:06.418Z,17.10
2023-05-07T03:29:34.620Z,16.20
2023-05-07T03:32:02.817Z,17.03
2023-05-07T03:34:31.244Z,17.27
2023-05-07T03:36:59.484Z,16.87
2023-05-07T03:39:27.712Z,16.77
2023-05-07T03:41:57.270Z,15.57
2023-05-07T03:44:25.436Z,17.97
2023-05-07T03:46:53.755Z,17.67
2023-05-07T03:49:21.984Z,16.40
2023-05-07T03:51:50.202Z,17.13
2023-05-07T03:54:18.456Z,16.33
2023-05-07T03:56:46.620Z,16.40
2023-05-07T03:59:16.211Z,17.10
2023-05-07T04:01:44.503Z,16.27
2023-05-07T04:04:12.783Z,17.53
2023-05-07T04:06:41.002Z,16.00
2023-05-07T04:09:09.201Z,16.27
2023-05-07T04:11:37.961Z,16.67
2023-05-07T04:14:06.182Z,16.97
2023-05-07T04:16:37.291Z,16.27
2023-05-07T04:19:05.542Z,17.17
2023-05-07T04:21:33.711Z,16.30
2023-05-07T04:24:01.990Z,16.57
2023-05-07T04:26:30.370Z,16.73
2023-05-07T04:28:58.691Z,16.90
2023-05-07T04:31:26.912Z,16.90
2023-05-07T04:33:56.573Z,16.63
2023-05-07T04:36:28.428Z,16.60
2023-05-07T04:38:56.670Z,16.53
2023-05-07T04:41:24.890Z,17.03
2023-05-07T04:43:53.507Z,16.37
2023-05-07T04:46:21.788Z,16.43
2023-05-07T04:48:49.989Z,16.87
2023-05-07T04:51:19.547Z,17.10
2023-05-07T04:53:47.700Z,17.10
2023-05-07T04:56:15.942Z,17.03
2023-05-07T04:58:44.145Z,17.00
2023-05-07T05:01:12.658Z,16.67
2023-05-07T05:03:41.810Z,17.33
2023-05-07T05:06:10.054Z,16.23
2023-05-07T05:08:39.644Z,17.40
2023-05-07T05:11:08.074Z,16.50
2023-05-07T05:13:36.242Z,16.30
2023-05-07T05:16:04.489Z,17.17
2023-05-07T05:18:32.704Z,16.40
2023-05-07T05:21:00.884Z,16.33
2023-05-07T05:23:30.473Z,16.20
2023-05-07T05:26:00.448Z,16.13
2023-05-07T05:28:28.955Z,17.03
2023-05-07T05:30:57.664Z,16.53
2023-05-07T05:33:25.905Z,17.27
2023-05-07T05:35:54.077Z,17.00
2023-05-07T05:38:22.788Z,16.17
2023-05-07T05:40:50.977Z,16.47
2023-05-07T05:43:20.503Z,16.70
2023-05-07T05:45:48.897Z,17.97
2023-05-07T05:48:17.095Z,16.60
2023-05-07T05:50:45.484Z,17.53
2023-05-07T05:53:13.676Z,17.57
2023-05-07T05:55:41.939Z,16.40
2023-05-07T05:58:10.359Z,16.37
2023-05-07T06:00:39.935Z,16.23
2023-05-07T06:03:08.201Z,17.97
2023-05-07T06:05:36.470Z,17.00
2023-05-07T06:08:04.792Z,17.47
2023-05-07T06:10:33.250Z,17.43
2023-05-07T06:13:01.527Z,17.60
2023-05-07T06:15:29.759Z,18.30
2023-05-07T06:17:59.391Z,17.23
2023-05-07T06:20:27.734Z,17.43
2023-05-07T06:22:56.069Z,16.60
2023-05-07T06:25:24.310Z,16.87
2023-05-07T06:27:52.597Z,17.30
2023-05-07T06:30:20.827Z,17.27
2023-05-07T06:32:49.058Z,16.67
2023-05-07T06:35:18.799Z,16.90
2023-05-07T06:37:47.521Z,17.60
2023-05-07T06:40:16.570Z,18.50
2023-05-07T06:42:44.855Z,17.50
2023-05-07T06:45:14.835Z,16.90
2023-05-07T06:47:43.279Z,17.00
2023-05-07T06:50:11.959Z,16.47
2023-05-07T06:52:41.840Z,17.27
2023-05-07T06:55:10.684Z,16.90
2023-05-07T06:57:38.969Z,17.03
2023-05-07T07:00:10.762Z,16.87
2023-05-07T07:02:39.366Z,16.10
2023-05-07T07:05:08.284Z,16.47
2023-05-07T07:07:36.680Z,16.73
2023-05-07T07:10:06.595Z,16.73
2023-05-07T07:12:37.918Z,15.90
2023-05-07T07:15:06.885Z,17.10
2023-05-07T07:17:35.349Z,16.80
2023-05-07T07:20:03.769Z,16.07
2023-05-07T07:22:32.449Z,16.90
2023-05-07T07:25:04.481Z,16.60
2023-05-07T07:27:35.670Z,17.17
2023-05-07T07:30:03.953Z,16.43
2023-05-07T07:32:33.604Z,16.00
2023-05-07T07:35:02.500Z,16.30
2023-05-07T07:37:30.887Z,16.93
2023-05-07T07:39:59.209Z,17.13
2023-05-07T07:42:27.446Z,16.60
2023-05-07T07:44:58.170Z,16.67
2023-05-07T07:47:26.534Z,16.80
2023-05-07T07:49:54.858Z,16.13
2023-05-07T07:52:23.811Z,16.50
2023-05-07T07:54:52.975Z,16.23
2023-05-07T07:57:21.685Z,16.17
2023-05-07T07:59:50.011Z,16.27
2023-05-07T08:02:19.854Z,15.70
2023-05-07T08:04:48.470Z,16.63
2023-05-07T08:07:19.369Z,15.70
2023-05-07T08:09:47.856Z,16.00
2023-05-07T08:12:16.221Z,16.50
2023-05-07T08:14:44.510Z,16.40
2023-05-07T08:17:13.053Z,16.23
2023-05-07T08:19:42.849Z,16.30
2023-05-07T08:22:12.010Z,16.27
2023-05-07T08:24:40.334Z,15.70
2023-05-07T08:27:08.797Z,16.07
2023-05-07T08:29:37.018Z,17.17
2023-05-07T08:32:05.508Z,16.37
2023-05-07T08:34:33.907Z,15.70
2023-05-07T08:37:04.657Z,16.70
2023-05-07T08:39:33.213Z,16.83
2023-05-07T08:42:03.139Z,16.27
2023-05-07T08:44:35.064Z,16.30
2023-05-07T08:47:04.138Z,16.83
2023-05-07T08:49:32.380Z,16.27
2023-05-07T08:52:00.954Z,16.00
2023-05-07T08:54:32.590Z,16.13
2023-05-07T08:57:01.005Z,16.03
2023-05-07T08:59:29.316Z,15.87
2023-05-07T09:01:57.575Z,14.90
2023-05-07T09:04:25.882Z,15.97
2023-05-07T09:06:54.181Z,16.10
2023-05-07T09:09:24.422Z,15.43
2023-05-07T09:12:00.652Z,16.13
2023-05-07T09:14:28.901Z,16.00
2023-05-07T09:16:57.408Z,15.13
2023-05-07T09:19:25.768Z,14.97
2023-05-07T09:22:00.940Z,14.63
2023-05-07T09:24:31.893Z,15.73
2023-05-07T09:27:11.327Z,15.15
2023-05-07T09:29:42.609Z,15.60
2023-05-07T09:32:11.607Z,15.63
2023-05-07T09:37:21.106Z,15.50
2023-05-07T09:39:52.573Z,14.73
2023-05-07T09:42:27.639Z,14.68
2023-05-07T09:44:56.101Z,13.90
2023-05-07T09:47:27.248Z,14.95
2023-05-07T09:49:58.756Z,14.05
2023-05-07T09:52:29.698Z,13.60
2023-05-07T09:55:01.064Z,14.95
2023-05-07T09:57:31.596Z,13.88
2023-05-07T10:00:01.009Z,14.10
2023-05-07T10:02:32.031Z,13.98
2023-05-07T10:05:01.478Z,13.00
2023-05-07T10:07:30.248Z,14.20
2023-05-07T10:09:58.657Z,13.77
2023-05-07T10:12:26.956Z,13.45
2023-05-07T10:14:57.443Z,13.60
2023-05-07T10:17:26.362Z,12.65
2023-05-07T10:19:56.021Z,12.05
2023-05-07T10:22:24.943Z,11.95
2023-05-07T10:24:55.769Z,11.80
2023-05-07T10:27:25.111Z,13.45
2023-05-07T10:30:05.535Z,12.93
2023-05-07T10:32:40.192Z,12.30
2023-05-07T10:35:11.379Z,11.70
2023-05-07T10:37:40.007Z,12.13
2023-05-07T10:40:09.181Z,11.35
2023-05-07T10:42:37.470Z,11.32
2023-05-07T10:45:16.735Z,11.77
2023-05-07T10:48:06.990Z,12.00
2023-05-07T10:50:41.613Z,11.90
2023-05-07T10:53:29.871Z,11.95
2023-05-07T10:56:12.968Z,11.43
2023-05-07T10:58:41.239Z,11.85
2023-05-07T11:01:11.300Z,12.55
2023-05-07T11:03:59.592Z,12.68
2023-05-07T11:06:29.254Z,11.75
2023-05-07T11:08:57.919Z,12.13
2023-05-07T11:11:48.634Z,11.43
2023-05-07T11:14:17.312Z,11.32
2023-05-07T11:16:46.248Z,10.65
2023-05-07T11:19:14.579Z,11.45
2023-05-07T11:21:44.757Z,10.93
2023-05-07T11:24:13.450Z,10.95
2023-05-07T11:26:46.303Z,10.10
2023-05-07T11:29:19.476Z,10.93
2023-05-07T11:31:51.747Z,11.43
2023-05-07T11:34:23.856Z,10.30
2023-05-07T11:36:53.814Z,10.65
2023-05-07T11:39:28.824Z,10.85
2023-05-07T11:41:57.304Z,12.20
2023-05-07T11:44:25.709Z,11.95
2023-05-07T11:46:54.043Z,10.35
2023-05-07T11:49:22.825Z,10.15
2023-05-07T11:51:51.157Z,10.35
2023-05-07T11:54:22.314Z,9.68
2023-05-07T11:56:50.613Z,9.77
2023-05-07T11:59:21.784Z,10.20
2023-05-07T12:01:50.204Z,10.43
2023-05-07T12:04:25.929Z,10.27
2023-05-07T12:06:57.113Z,10.85
2023-05-07T12:09:26.924Z,10.43
2023-05-07T12:11:57.164Z,9.23
2023-05-07T12:14:31.344Z,9.48
2023-05-07T12:16:59.915Z,9.05
2023-05-07T12:19:28.416Z,9.55
2023-05-07T12:21:57.348Z,9.07
2023-05-07T12:24:27.014Z,8.95
2023-05-07T12:26:55.697Z,9.25
2023-05-07T12:29:24.786Z,9.05
2023-05-07T12:31:53.344Z,9.15
2023-05-07T12:34:22.025Z,8.82
2023-05-07T12:36:51.064Z,8.80
2023-05-07T12:39:19.353Z,7.93
2023-05-07T12:41:59.533Z,8.90
2023-05-07T12:44:31.725Z,8.40
2023-05-07T12:47:01.277Z,8.05
2023-05-07T12:49:29.608Z,7.40
2023-05-07T12:51:57.995Z,6.95
2023-05-07T12:54:32.354Z,6.82
2023-05-07T12:57:05.576Z,7.20
2023-05-07T12:59:34.336Z,7.88
2023-05-07T13:02:02.674Z,7.45
2023-05-07T13:04:30.923Z,7.32
2023-05-07T13:06:59.105Z,7.15
2023-05-07T13:09:27.395Z,5.75
2023-05-07T13:11:55.595Z,5.88
2023-05-07T13:14:25.147Z,6.10
2023-05-07T13:16:53.417Z,6.47
2023-05-07T13:19:21.639Z,6.13
2023-05-07T13:21:50.688Z,6.07
2023-05-07T13:24:18.858Z,5.90
2023-05-07T13:26:47.120Z,5.72
2023-05-07T13:29:15.296Z,6.25
2023-05-07T13:31:45.148Z,6.35
2023-05-07T13:34:13.427Z,6.60
2023-05-07T13:36:42.921Z,6.55
2023-05-07T13:39:11.146Z,5.97
2023-05-07T13:41:39.415Z,6.55
2023-05-07T13:44:07.738Z,6.68
2023-05-07T13:46:36.076Z,5.97
2023-05-07T13:49:05.940Z,5.95
2023-05-07T13:51:34.164Z,6.03
2023-05-07T13:54:02.391Z,6.43
2023-05-07T13:56:32.347Z,5.93
2023-05-07T13:59:01.146Z,5.90
2023-05-07T14:01:29.833Z,5.60
2023-05-07T14:03:58.868Z,5.45
2023-05-07T14:06:28.624Z,6.18
2023-05-07T14:08:59.031Z,6.53
2023-05-07T14:11:27.322Z,5.88
2023-05-07T14:13:55.564Z,6.07
2023-05-07T14:16:23.808Z,5.45
2023-05-07T14:18:52.086Z,6.57
2023-05-07T14:21:20.341Z,6.07
2023-05-07T14:23:49.899Z,6.55
2023-05-07T14:26:18.308Z,6.53
2023-05-07T14:28:47.398Z,7.25
2023-05-07T14:31:15.927Z,7.20
2023-05-07T14:33:44.229Z,6.97
2023-05-07T14:36:12.455Z,6.45
2023-05-07T14:38:40.748Z,6.65
2023-05-07T14:41:10.317Z,6.75
2023-05-07T14:43:38.518Z,6.32
2023-05-07T14:46:06.894Z,6.13
2023-05-07T14:48:35.166Z,5.63
2023-05-07T14:51:03.399Z,5.68
2023-05-07T14:53:31.630Z,5.93
2023-05-07T14:56:00.022Z,6.15
2023-05-07T14:58:29.647Z,6.45
2023-05-07T15:00:57.923Z,5.75
2023-05-07T15:03:26.502Z,5.95
2023-05-07T15:05:54.820Z,5.47
2023-05-07T15:08:23.145Z,5.70
2023-05-07T15:10:51.536Z,5.50
2023-05-07T15:13:19.818Z,5.30
2023-05-07T15:15:50.473Z,4.70
2023-05-07T15:20:50.655Z,5.45
2023-05-07T15:23:18.946Z,5.20
2023-05-07T15:25:49.646Z,5.03
2023-05-07T15:28:18.699Z,5.40
2023-05-07T15:30:46.933Z,4.85
2023-05-07T15:33:16.521Z,5.20
2023-05-07T15:35:44.764Z,4.45
2023-05-07T15:38:14.008Z,4.85
2023-05-07T15:40:43.309Z,4.97
2023-05-07T15:43:11.952Z,4.90
2023-05-07T15:45:42.028Z,5.07
2023-05-07T15:48:10.325Z,5.07
2023-05-07T15:50:39.985Z,4.95
2023-05-07T15:53:08.402Z,4.72
2023-05-07T15:55:36.807Z,4.95
2023-05-07T15:58:06.692Z,4.88
2023-05-07T16:00:36.192Z,4.78
2023-05-07T16:03:04.559Z,4.95
2023-05-07T16:05:32.857Z,4.68
2023-05-07T16:08:02.413Z,4.70
2023-05-07T16:10:30.710Z,4.75
2023-05-07T16:12:59.419Z,4.70
2023-05-07T16:15:27.624Z,4.82
2023-05-07T16:17:58.108Z,4.72
2023-05-07T16:20:29.887Z,4.57
2023-05-07T16:22:58.341Z,4.47
2023-05-07T16:25:27.984Z,4.50
2023-05-07T16:27:56.513Z,4.80
2023-05-07T16:30:24.805Z,5.10
2023-05-07T16:32:53.248Z,4.18
2023-05-07T16:35:21.591Z,4.75
2023-05-07T16:37:49.781Z,4.95
2023-05-07T16:40:18.087Z,4.05
2023-05-07T16:42:47.914Z,4.30
2023-05-07T16:45:16.412Z,4.50
2023-05-07T16:47:44.794Z,4.03
2023-05-07T16:50:13.431Z,4.80
2023-05-07T16:52:41.731Z,4.72
2023-05-07T16:55:10.212Z,4.47
2023-05-07T16:57:38.765Z,4.45
2023-05-07T17:00:11.683Z,4.60
2023-05-07T17:02:40.067Z,4.63
2023-05-07T17:05:08.784Z,4.88
2023-05-07T17:07:37.101Z,4.88
2023-05-07T17:10:05.581Z,4.55
2023-05-07T17:12:35.738Z,4.60
2023-05-07T17:15:04.060Z,4.32
2023-05-07T17:17:33.767Z,4.95
2023-05-07T17:20:02.125Z,4.82
2023-05-07T17:22:30.322Z,4.63
2023-05-07T17:24:59.514Z,4.63
2023-05-07T17:27:27.761Z,5.15
2023-05-07T17:29:56.055Z,5.20
2023-05-07T17:32:24.451Z,4.50
2023-05-07T17:34:54.017Z,4.72
2023-05-07T17:37:23.706Z,5.15
2023-05-07T17:39:53.412Z,4.60
2023-05-07T17:42:21.682Z,5.53
2023-05-07T17:44:49.887Z,5.05
2023-05-07T17:47:18.150Z,5.05
2023-05-07T17:49:46.391Z,5.30
2023-05-07T17:52:16.121Z,5.10
2023-05-07T17:54:44.428Z,5.13
2023-05-07T17:57:12.697Z,5.22
2023-05-07T17:59:40.906Z,5.35
2023-05-07T18:02:09.167Z,4.85
2023-05-07T18:04:37.493Z,5.88
2023-05-07T18:07:05.719Z,5.40
2023-05-07T18:09:35.457Z,4.95
2023-05-07T18:12:03.636Z,5.10
2023-05-07T18:14:31.882Z,5.75
2023-05-07T18:17:00.166Z,5.40
2023-05-07T18:19:28.408Z,6.43
2023-05-07T18:21:57.779Z,5.50
2023-05-07T18:24:27.089Z,5.60
2023-05-07T18:26:56.646Z,5.65
2023-05-07T18:29:25.160Z,5.90
2023-05-07T18:31:53.457Z,5.45
2023-05-07T18:34:21.649Z,5.32
2023-05-07T18:36:49.889Z,5.50
2023-05-07T18:39:18.109Z,5.65
2023-05-07T18:41:48.701Z,5.70
2023-05-07T18:44:18.700Z,5.95
2023-05-07T18:46:47.826Z,5.70
2023-05-07T18:49:16.052Z,5.78
2023-05-07T18:51:44.953Z,5.35
2023-05-07T18:54:13.360Z,5.47
2023-05-07T18:56:43.151Z,5.65
2023-05-07T18:59:11.934Z,5.47
2023-05-07T19:01:41.534Z,6.25
2023-05-07T19:04:09.860Z,6.35
2023-05-07T19:06:38.079Z,6.03
2023-05-07T19:09:06.432Z,5.93
2023-05-07T19:11:34.696Z,5.43
2023-05-07T19:14:04.599Z,5.57
2023-05-07T19:16:33.143Z,5.70
2023-05-07T19:19:02.900Z,5.43
2023-05-07T19:21:31.580Z,5.80
2023-05-07T19:23:59.806Z,6.10
2023-05-07T19:26:28.071Z,6.50
2023-05-07T19:29:12.209Z,6.38
2023-05-07T19:31:45.112Z,7.18
2023-05-07T19:34:14.841Z,7.00
2023-05-07T19:36:43.374Z,6.93
2023-05-07T19:39:11.683Z,7.00
2023-05-07T19:41:41.791Z,7.10
2023-05-07T19:44:10.001Z,7.93
2023-05-07T19:46:40.387Z,7.85
2023-05-07T19:49:11.192Z,7.53
2023-05-07T19:51:42.266Z,7.68
2023-05-07T19:54:10.533Z,7.93
2023-05-07T19:56:39.917Z,7.85
2023-05-07T19:59:08.154Z,7.72
2023-05-07T20:01:38.992Z,7.40
2023-05-07T20:04:07.417Z,8.30
2023-05-07T20:06:35.763Z,7.85
2023-05-07T20:09:06.216Z,8.50
2023-05-07T20:11:34.448Z,7.90
2023-05-07T20:14:04.485Z,8.05
2023-05-07T20:16:32.903Z,8.38
2023-05-07T20:19:01.149Z,8.13
2023-05-07T20:21:29.387Z,8.20
2023-05-07T20:23:58.131Z,8.40
2023-05-07T20:26:27.736Z,7.72
2023-05-07T20:28:55.940Z,8.27
2023-05-07T20:31:24.205Z,8.45
2023-05-07T20:33:52.610Z,8.10
2023-05-07T20:36:20.828Z,8.82
2023-05-07T20:38:49.016Z,8.50
2023-05-07T20:41:17.675Z,8.52
2023-05-07T20:43:47.580Z,8.25
2023-05-07T20:46:15.821Z,8.20
2023-05-07T20:48:44.052Z,9.48
2023-05-07T20:51:13.646Z,9.38
2023-05-07T20:53:44.764Z,8.93
2023-05-07T20:56:14.349Z,8.90
2023-05-07T20:58:42.664Z,8.85
2023-05-07T21:01:12.318Z,9.25
2023-05-07T21:03:40.522Z,9.13
2023-05-07T21:06:08.735Z,8.83
2023-05-07T21:08:36.933Z,8.83
2023-05-07T21:11:05.806Z,9.35
2023-05-07T21:13:34.034Z,9.17
2023-05-07T21:16:02.322Z,9.30
2023-05-07T21:18:31.898Z,9.33
2023-05-07T21:21:00.103Z,9.40
2023-05-07T21:23:28.396Z,8.83
2023-05-07T21:25:56.561Z,9.60
2023-05-07T21:28:24.797Z,9.47
2023-05-07T21:30:53.834Z,9.30
2023-05-07T21:33:22.199Z,9.33
2023-05-07T21:35:51.908Z,9.50
2023-05-07T21:38:20.084Z,10.07
2023-05-07T21:40:48.251Z,10.33
2023-05-07T21:43:16.477Z,10.03
2023-05-07T21:45:44.683Z,9.50
2023-05-07T21:48:15.422Z,10.47
2023-05-07T21:50:43.612Z,10.37
2023-05-07T21:53:13.148Z,10.07
2023-05-07T21:55:41.423Z,10.37
2023-05-07T21:58:09.600Z,10.37
2023-05-07T22:00:38.207Z,10.60
2023-05-07T22:03:06.672Z,11.30
2023-05-07T22:05:34.926Z,10.30
2023-05-07T22:08:03.166Z,10.53
2023-05-07T22:10:32.818Z,11.50
2023-05-07T22:13:01.082Z,10.97
2023-05-07T22:15:29.319Z,11.00
2023-05-07T22:17:57.517Z,10.77
2023-05-07T22:20:25.771Z,11.10
2023-05-07T22:22:54.701Z,10.57
2023-05-07T22:25:23.118Z,11.67
2023-05-07T22:27:52.837Z,10.97
2023-05-07T22:30:21.097Z,10.77
2023-05-07T22:32:49.320Z,10.80
2023-05-07T22:35:17.598Z,10.77
2023-05-07T22:37:45.801Z,11.47
2023-05-07T22:40:14.509Z,10.87
2023-05-07T22:42:42.942Z,11.63
2023-05-07T22:45:13.203Z,10.87
2023-05-07T22:47:41.495Z,11.13
2023-05-07T22:50:10.303Z,11.17
2023-05-07T22:52:38.853Z,11.43
2023-05-07T22:55:07.482Z,11.30
2023-05-07T22:57:35.670Z,10.97
2023-05-07T23:00:04.451Z,11.60
2023-05-07T23:02:34.064Z,11.43
2023-05-07T23:05:03.174Z,11.00
2023-05-07T23:07:31.542Z,11.00
2023-05-07T23:09:59.741Z,10.57
2023-05-07T23:12:27.939Z,10.97
2023-05-07T23:14:56.178Z,11.23
2023-05-07T23:17:24.447Z,11.03
2023-05-07T23:19:54.060Z,10.50
2023-05-07T23:22:22.353Z,11.50
2023-05-07T23:24:50.569Z,11.77
2023-05-07T23:27:18.818Z,10.77
2023-05-07T23:29:47.608Z,10.90
2023-05-07T23:32:16.057Z,10.67
2023-05-07T23:34:44.246Z,10.63
2023-05-07T23:37:13.824Z,10.57
2023-05-07T23:39:42.009Z,10.87
2023-05-07T23:42:10.752Z,10.90
2023-05-07T23:44:38.979Z,11.00
2023-05-07T23:47:07.254Z,11.60
2023-05-07T23:49:35.527Z,11.13
2023-05-07T23:52:03.766Z,10.80
2023-05-07T23:54:33.324Z,11.00
2023-05-07T23:57:03.352Z,11.10
2023-05-07T23:59:31.597Z,11.17
